Time;durP1;ratioP1;P1;durP2;ratioP2;P2;SDS_P1;SDS_P2;PMS_P1;PMS_P2;Temp;Humidity;BMP_temperature;BMP_pressure;BME280_temperature;BME280_humidity;BME280_pressure;Samples;Min_cycle;Max_cycle;Signal;HPM_P1;HPM_P2
2023/09/17 00:01:09;;;;;;;4.75;3.35;;;23.20;64.40;;;;;;4994082;28;20463;-78
2023/09/17 00:03:35;;;;;;;4.40;3.30;;;23.10;64.30;;;;;;4993300;28;20127;-79
2023/09/17 00:06:01;;;;;;;4.28;3.38;;;23.10;64.40;;;;;;4993606;28;20074;-79
2023/09/17 00:08:27;;;;;;;4.50;3.40;;;23.10;64.40;;;;;;5010158;28;20036;-79
2023/09/17 00:10:53;;;;;;;4.70;3.53;;;23.10;64.40;;;;;;4993852;28;20034;-79
2023/09/17 00:13:19;;;;;;;5.22;3.90;;;23.00;64.30;;;;;;4993136;28;20459;-80
2023/09/17 00:15:45;;;;;;;4.30;3.40;;;23.00;64.30;;;;;;4993035;28;20053;-78
2023/09/17 00:18:12;;;;;;;4.70;3.70;;;23.00;64.30;;;;;;5009411;28;20085;-79
2023/09/17 00:20:38;;;;;;;4.95;3.47;;;23.00;64.40;;;;;;4993078;28;20062;-79
2023/09/17 00:23:04;;;;;;;4.93;3.78;;;22.90;64.30;;;;;;4976924;28;20091;-79
2023/09/17 00:25:30;;;;;;;5.07;4.13;;;22.90;64.30;;;;;;4993661;28;20077;-78
2023/09/17 00:27:56;;;;;;;4.45;3.63;;;22.90;64.30;;;;;;5009030;28;20431;-79
2023/09/17 00:30:22;;;;;;;4.22;3.28;;;22.90;64.30;;;;;;4993165;28;20078;-79
2023/09/17 00:32:48;;;;;;;4.50;3.45;;;22.90;64.30;;;;;;4993109;28;20391;-78
2023/09/17 00:35:13;;;;;;;4.15;3.30;;;22.90;64.30;;;;;;4993214;28;20033;-79
2023/09/17 00:37:40;;;;;;;4.22;3.50;;;22.80;64.30;;;;;;4976785;28;20427;-79
2023/09/17 00:40:10;;;;;;;4.85;3.75;;;22.80;64.30;;;;;;4992555;28;20051;-79
2023/09/17 00:42:36;;;;;;;4.43;3.50;;;22.80;64.30;;;;;;4977233;28;20092;-78
2023/09/17 00:45:03;;;;;;;4.35;3.45;;;22.80;64.30;;;;;;5009243;28;20030;-79
2023/09/17 00:47:30;;;;;;;3.83;3.22;;;22.80;64.30;;;;;;4992813;28;20085;-80
2023/09/17 00:49:59;;;;;;;4.43;3.38;;;22.70;64.20;;;;;;4992828;28;20546;-79
2023/09/17 00:52:25;;;;;;;4.70;3.35;;;22.70;64.20;;;;;;4992625;28;20034;-79
2023/09/17 00:54:51;;;;;;;4.28;3.17;;;22.70;64.30;;;;;;4993423;28;20415;-79
2023/09/17 00:57:17;;;;;;;4.47;3.63;;;22.70;64.30;;;;;;4976392;28;20039;-79
2023/09/17 00:59:44;;;;;;;4.75;3.20;;;22.60;64.30;;;;;;4960534;28;20053;-79
2023/09/17 01:02:12;;;;;;;3.65;2.88;;;22.60;64.30;;;;;;4992765;28;20037;-78
2023/09/17 01:04:40;;;;;;;4.53;3.40;;;22.60;64.30;;;;;;4976415;28;20060;-78
2023/09/17 01:07:08;;;;;;;4.07;3.10;;;22.60;64.40;;;;;;4976679;28;20041;-79
2023/09/17 01:09:34;;;;;;;4.60;3.45;;;22.60;64.40;;;;;;4992838;28;20034;-80
2023/09/17 01:12:01;;;;;;;5.30;3.50;;;22.60;64.40;;;;;;4978673;28;20034;-78
2023/09/17 01:14:27;;;;;;;4.30;3.47;;;22.50;64.40;;;;;;4996691;28;20031;-78
2023/09/17 01:16:54;;;;;;;5.07;4.20;;;22.50;64.40;;;;;;4980295;28;20038;-79
2023/09/17 01:19:29;;;;;;;3.95;3.13;;;22.50;64.50;;;;;;4980516;28;20364;-79
2023/09/17 01:22:13;;;;;;;4.60;3.60;;;22.40;64.40;;;;;;4996432;28;20066;-78
2023/09/17 01:25:06;;;;;;;4.45;3.33;;;22.40;64.50;;;;;;5013183;28;20034;-80
2023/09/17 01:27:41;;;;;;;5.68;3.80;;;22.40;64.50;;;;;;5012054;28;20062;-78
2023/09/17 01:30:21;;;;;;;5.03;4.05;;;22.40;64.50;;;;;;4996162;28;20106;-79
2023/09/17 01:32:47;;;;;;;4.88;4.00;;;22.30;64.50;;;;;;4997591;28;20038;-79
2023/09/17 01:35:15;;;;;;;4.47;3.67;;;22.30;64.50;;;;;;4963657;28;20459;-79
2023/09/17 01:37:54;;;;;;;4.90;3.47;;;22.30;64.60;;;;;;4979790;28;20507;-79
2023/09/17 01:40:21;;;;;;;4.63;3.72;;;22.30;64.70;;;;;;4995409;28;20085;-79
2023/09/17 01:42:48;;;;;;;5.40;4.35;;;22.20;64.60;;;;;;5012241;28;20485;-80
2023/09/17 01:45:18;;;;;;;4.80;3.92;;;22.30;64.70;;;;;;4995792;28;20037;-79
2023/09/17 01:47:47;;;;;;;5.55;4.30;;;22.20;64.70;;;;;;4996282;28;20121;-79
2023/09/17 01:50:15;;;;;;;5.50;4.30;;;22.20;64.70;;;;;;5012181;28;20026;-78
2023/09/17 01:52:45;;;;;;;5.03;4.22;;;22.20;64.70;;;;;;4963558;28;20053;-79
2023/09/17 01:55:12;;;;;;;5.50;4.13;;;22.10;64.70;;;;;;4995550;28;20030;-79
2023/09/17 01:57:39;;;;;;;5.15;4.07;;;22.10;64.80;;;;;;4995381;28;20034;-79
2023/09/17 02:00:14;;;;;;;4.90;4.10;;;22.10;64.80;;;;;;5011613;28;20377;-79
2023/09/17 02:02:47;;;;;;;5.03;4.10;;;22.10;64.80;;;;;;4997414;28;20419;-79
2023/09/17 02:05:17;;;;;;;4.63;3.75;;;22.10;64.80;;;;;;5011878;28;20495;-79
2023/09/17 02:07:43;;;;;;;5.40;4.28;;;22.00;64.80;;;;;;4979787;28;20029;-79
2023/09/17 02:10:10;;;;;;;5.32;4.05;;;22.00;64.80;;;;;;5011511;28;20034;-80
2023/09/17 02:12:35;;;;;;;5.53;4.50;;;22.00;64.80;;;;;;4979303;28;20185;-78
2023/09/17 02:15:01;;;;;;;5.40;4.50;;;22.00;64.90;;;;;;4995304;28;20431;-78
2023/09/17 02:17:28;;;;;;;4.93;4.20;;;21.90;64.80;;;;;;4995004;28;20034;-78
2023/09/17 02:19:54;;;;;;;4.95;4.45;;;21.90;64.90;;;;;;4962959;28;20503;-77
2023/09/17 02:22:20;;;;;;;6.05;5.05;;;21.90;64.90;;;;;;4978877;28;20125;-81
2023/09/17 02:24:46;;;;;;;5.40;4.47;;;21.90;64.90;;;;;;4946661;28;20157;-80
2023/09/17 02:27:13;;;;;;;5.38;4.30;;;21.90;64.90;;;;;;4995710;28;20038;-81
2023/09/17 02:29:40;;;;;;;5.10;4.07;;;21.90;65.00;;;;;;4996862;28;20034;-80
2023/09/17 02:32:06;;;;;;;5.32;4.50;;;21.90;65.00;;;;;;4994889;28;20040;-81
2023/09/17 02:34:32;;;;;;;5.45;4.40;;;21.80;64.90;;;;;;4962593;28;20382;-80
2023/09/17 02:36:58;;;;;;;5.15;4.60;;;21.80;65.00;;;;;;4994589;28;20038;-80
2023/09/17 02:39:23;;;;;;;5.50;4.43;;;21.80;65.00;;;;;;4962591;28;20117;-81
2023/09/17 02:41:49;;;;;;;5.13;4.28;;;21.80;65.00;;;;;;5015974;28;20061;-80
2023/09/17 02:44:15;;;;;;;5.20;4.18;;;21.70;65.00;;;;;;4997920;28;20038;-80
2023/09/17 02:46:41;;;;;;;6.25;4.47;;;21.70;65.00;;;;;;4982197;28;20038;-81
2023/09/17 02:49:06;;;;;;;5.13;4.30;;;21.70;65.00;;;;;;5015717;28;20038;-80
2023/09/17 02:51:32;;;;;;;5.00;3.90;;;21.70;65.00;;;;;;4997850;28;20030;-80
2023/09/17 02:53:58;;;;;;;4.90;4.22;;;21.70;65.10;;;;;;4997251;28;20564;-80
2023/09/17 02:56:25;;;;;;;6.07;4.70;;;21.70;65.10;;;;;;4997175;28;20406;-81
2023/09/17 02:58:50;;;;;;;4.95;4.30;;;21.60;65.80;;;;;;4998503;28;20071;-80
2023/09/17 03:01:18;;;;;;;5.32;4.47;;;21.60;65.10;;;;;;4997382;28;20129;-80
2023/09/17 03:03:45;;;;;;;5.68;4.50;;;21.60;65.10;;;;;;4997240;28;20112;-80
2023/09/17 03:06:11;;;;;;;5.38;4.32;;;21.60;65.10;;;;;;5013294;28;20512;-81
2023/09/17 03:08:42;;;;;;;5.32;4.47;;;21.50;65.10;;;;;;4996991;28;20022;-80
2023/09/17 03:11:13;;;;;;;4.68;3.95;;;21.60;65.30;;;;;;4997480;28;20129;-80
2023/09/17 03:13:43;;;;;;;5.15;4.15;;;21.50;65.20;;;;;;4997867;28;20037;-81
2023/09/17 03:16:12;;;;;;;4.38;3.55;;;21.50;65.30;;;;;;5013406;28;20034;-80
2023/09/17 03:18:38;;;;;;;5.35;4.15;;;21.50;65.30;;;;;;5013122;28;20029;-80
2023/09/17 03:21:06;;;;;;;4.88;3.92;;;21.40;65.20;;;;;;4949159;28;20057;-81
2023/09/17 03:23:32;;;;;;;5.18;3.90;;;21.40;65.30;;;;;;4997283;28;20485;-80
2023/09/17 03:26:00;;;;;;;4.72;3.47;;;21.40;65.30;;;;;;4996991;28;20172;-80
2023/09/17 03:28:27;;;;;;;5.03;4.00;;;21.40;65.40;;;;;;5013503;28;20057;-80
2023/09/17 03:30:54;;;;;;;5.13;3.85;;;21.40;65.40;;;;;;4996886;28;20026;-80
2023/09/17 03:33:20;;;;;;;4.60;3.88;;;21.40;65.40;;;;;;4997236;28;20378;-80
2023/09/17 03:35:46;;;;;;;5.10;4.00;;;21.30;65.40;;;;;;4996346;28;20037;-80
2023/09/17 03:38:12;;;;;;;5.68;4.40;;;21.30;65.50;;;;;;5013999;28;20030;-80
2023/09/17 03:40:39;;;;;;;5.13;4.30;;;21.30;65.50;;;;;;4996164;28;20116;-81
2023/09/17 03:43:06;;;;;;;5.50;4.20;;;21.20;65.50;;;;;;5013259;28;20037;-80
2023/09/17 03:45:32;;;;;;;4.95;3.85;;;21.20;65.50;;;;;;4996229;28;20398;-81
2023/09/17 03:47:58;;;;;;;5.35;4.40;;;21.20;65.50;;;;;;5012850;28;20141;-81
2023/09/17 03:50:24;;;;;;;5.03;3.90;;;21.20;65.60;;;;;;4980297;28;20034;-80
2023/09/17 03:52:52;;;;;;;4.80;3.80;;;21.10;65.60;;;;;;4996440;28;20125;-80
2023/09/17 03:55:20;;;;;;;4.80;3.78;;;21.10;65.80;;;;;;5012501;28;20121;-80
2023/09/17 03:57:46;;;;;;;4.97;3.95;;;21.00;65.80;;;;;;4996623;28;20026;-80
2023/09/17 04:00:13;;;;;;;4.90;4.03;;;21.00;65.90;;;;;;5012720;28;20543;-80
2023/09/17 04:02:41;;;;;;;4.95;3.85;;;21.00;65.90;;;;;;5012948;28;20040;-80
2023/09/17 04:05:13;;;;;;;3.90;3.30;;;21.00;66.00;;;;;;4996927;28;20056;-80
2023/09/17 04:07:48;;;;;;;4.47;3.63;;;21.00;66.00;;;;;;4982670;28;20038;-79
2023/09/17 04:10:16;;;;;;;4.45;3.80;;;21.00;66.10;;;;;;5002310;28;20029;-79
2023/09/17 04:12:43;;;;;;;5.13;4.28;;;20.90;66.10;;;;;;4998211;28;20046;-80
2023/09/17 04:15:17;;;;;;;5.03;4.10;;;20.90;66.20;;;;;;4981603;28;20463;-80
2023/09/17 04:17:44;;;;;;;5.30;4.22;;;20.90;66.20;;;;;;4997118;28;20459;-79
2023/09/17 04:20:18;;;;;;;6.07;4.43;;;20.80;66.20;;;;;;4997123;28;20038;-80
2023/09/17 04:22:50;;;;;;;4.95;4.10;;;20.80;66.30;;;;;;5012840;28;20445;-80
2023/09/17 04:25:18;;;;;;;5.18;4.30;;;20.80;66.50;;;;;;5012457;28;20116;-80
2023/09/17 04:27:46;;;;;;;5.43;3.95;;;20.80;66.40;;;;;;4996172;28;20117;-80
2023/09/17 04:30:18;;;;;;;5.90;4.22;;;20.80;66.50;;;;;;5012382;28;20030;-80
2023/09/17 04:32:46;;;;;;;4.70;4.03;;;20.80;66.60;;;;;;4996044;28;20125;-80
2023/09/17 04:35:15;;;;;;;4.60;3.80;;;20.70;66.50;;;;;;5012215;28;20022;-80
2023/09/17 04:37:43;;;;;;;4.65;3.63;;;20.70;66.50;;;;;;5012320;28;20029;-80
2023/09/17 04:40:12;;;;;;;5.63;4.28;;;20.70;66.60;;;;;;4995646;28;20057;-79
2023/09/17 04:42:43;;;;;;;5.00;4.00;;;20.70;66.60;;;;;;5012516;28;20475;-80
2023/09/17 04:45:10;;;;;;;4.88;3.53;;;20.70;66.70;;;;;;5012483;28;20120;-80
2023/09/17 04:47:37;;;;;;;5.40;4.57;;;20.70;66.70;;;;;;4999029;28;20018;-80
2023/09/17 04:50:07;;;;;;;5.05;4.30;;;20.60;66.80;;;;;;5016236;28;20083;-79
2023/09/17 04:52:37;;;;;;;5.43;4.43;;;20.60;66.80;;;;;;5000493;28;20026;-80
2023/09/17 04:55:04;;;;;;;6.13;4.60;;;20.60;66.90;;;;;;5000543;28;20045;-79
2023/09/17 04:57:31;;;;;;;5.32;4.32;;;20.60;66.90;;;;;;5000375;28;20050;-80
2023/09/17 04:59:57;;;;;;;5.55;4.13;;;20.60;66.90;;;;;;5016042;28;20589;-80
2023/09/17 05:02:23;;;;;;;5.80;4.07;;;20.60;67.00;;;;;;4999659;28;20105;-80
2023/09/17 05:04:49;;;;;;;5.72;4.50;;;20.50;67.00;;;;;;4999816;28;20037;-80
2023/09/17 05:07:15;;;;;;;5.65;4.35;;;20.50;67.00;;;;;;4967165;28;20034;-79
2023/09/17 05:09:41;;;;;;;5.72;4.60;;;20.50;67.00;;;;;;4983304;28;20079;-80
2023/09/17 05:12:08;;;;;;;5.22;4.20;;;20.50;67.10;;;;;;5015739;28;20034;-80
2023/09/17 05:14:35;;;;;;;5.82;4.85;;;20.50;67.20;;;;;;5016489;28;20025;-80
2023/09/17 05:17:01;;;;;;;4.97;3.95;;;20.40;67.20;;;;;;4999422;28;20088;-79
2023/09/17 05:19:27;;;;;;;5.50;4.55;;;20.40;67.30;;;;;;4983146;28;20429;-80
2023/09/17 05:21:53;;;;;;;5.63;4.43;;;20.40;67.30;;;;;;4966986;28;20032;-80
2023/09/17 05:24:18;;;;;;;6.07;4.82;;;20.40;67.30;;;;;;5016600;28;20036;-79
2023/09/17 05:26:44;;;;;;;5.78;4.70;;;20.40;67.40;;;;;;4983195;28;20494;-79
2023/09/17 05:29:15;;;;;;;6.20;4.70;;;20.40;67.40;;;;;;5016126;28;20034;-80
2023/09/17 05:31:43;;;;;;;6.32;4.22;;;20.30;67.40;;;;;;4984647;28;20037;-78
2023/09/17 05:34:09;;;;;;;5.35;4.30;;;20.30;67.50;;;;;;4998931;28;20030;-79
2023/09/17 05:36:35;;;;;;;5.22;4.32;;;20.30;67.50;;;;;;5014941;28;20046;-80
2023/09/17 05:39:01;;;;;;;5.45;4.32;;;20.30;67.50;;;;;;4998924;28;20044;-80
2023/09/17 05:41:27;;;;;;;5.35;4.22;;;20.30;67.60;;;;;;5016681;28;20050;-79
2023/09/17 05:43:53;;;;;;;5.43;4.18;;;20.30;67.60;;;;;;4982817;28;20042;-80
2023/09/17 05:46:19;;;;;;;5.15;4.22;;;20.30;67.70;;;;;;4983549;28;20045;-79
2023/09/17 05:48:45;;;;;;;5.03;4.28;;;20.20;67.70;;;;;;4982846;28;20026;-80
2023/09/17 05:51:11;;;;;;;5.63;4.15;;;20.20;67.70;;;;;;5015775;28;20038;-80
2023/09/17 05:53:37;;;;;;;5.57;4.57;;;20.20;67.70;;;;;;5015203;28;20120;-79
2023/09/17 05:56:07;;;;;;;6.00;4.90;;;20.20;67.80;;;;;;4998795;28;20133;-79
2023/09/17 05:58:34;;;;;;;5.13;4.10;;;20.20;67.80;;;;;;5014057;28;20033;-80
2023/09/17 06:01:01;;;;;;;5.72;4.47;;;20.20;67.90;;;;;;4998127;28;20041;-80
2023/09/17 06:03:27;;;;;;;5.95;4.72;;;20.20;67.90;;;;;;5014733;28;20026;-79
2023/09/17 06:05:55;;;;;;;5.78;4.40;;;20.20;67.90;;;;;;4966054;28;20046;-80
2023/09/17 06:08:22;;;;;;;5.70;4.40;;;20.10;68.00;;;;;;5016405;28;20038;-80
2023/09/17 06:10:48;;;;;;;5.85;4.60;;;20.10;68.00;;;;;;4997859;28;20025;-80
2023/09/17 06:13:15;;;;;;;5.72;4.40;;;20.10;68.00;;;;;;4982740;28;20379;-80
2023/09/17 06:15:43;;;;;;;5.90;4.60;;;20.10;68.10;;;;;;4998879;28;20042;-80
2023/09/17 06:18:08;;;;;;;5.72;3.88;;;20.10;68.10;;;;;;4982397;28;20040;-81
2023/09/17 06:20:35;;;;;;;5.85;4.43;;;20.10;68.20;;;;;;4966159;28;20120;-80
2023/09/17 06:23:01;;;;;;;5.38;4.32;;;20.10;68.20;;;;;;4981538;28;20029;-80
2023/09/17 06:25:27;;;;;;;5.93;4.47;;;20.10;68.20;;;;;;4998468;28;20041;-83
2023/09/17 06:27:53;;;;;;;5.28;4.30;;;20.10;68.20;;;;;;4965833;28;20395;-81
2023/09/17 06:30:20;;;;;;;5.53;4.22;;;20.00;68.20;;;;;;4998047;28;20471;-82
2023/09/17 06:32:46;;;;;;;5.38;4.40;;;20.00;68.20;;;;;;5014118;28;20033;-85
2023/09/17 06:35:11;;;;;;;5.10;4.13;;;20.10;68.40;;;;;;4981921;28;20037;-83
2023/09/17 06:37:39;;;;;;;5.25;4.28;;;20.00;68.30;;;;;;4997765;28;20037;-83
2023/09/17 06:40:09;;;;;;;6.40;4.07;;;20.00;68.40;;;;;;4981782;28;20054;-82
2023/09/17 06:42:35;;;;;;;4.80;3.88;;;20.00;68.40;;;;;;4969932;28;20034;-83
2023/09/17 06:45:01;;;;;;;5.35;4.32;;;20.00;68.40;;;;;;5020164;28;20034;-80
2023/09/17 06:47:26;;;;;;;5.50;4.47;;;20.00;68.50;;;;;;5019810;28;20040;-81
2023/09/17 06:49:52;;;;;;;4.82;3.90;;;20.00;68.50;;;;;;4998754;28;20026;-81
2023/09/17 06:52:18;;;;;;;5.03;3.80;;;20.00;68.50;;;;;;4981669;28;20026;-83
2023/09/17 06:54:44;;;;;;;5.57;4.30;;;20.00;68.60;;;;;;4998045;28;20045;-82
2023/09/17 06:57:10;;;;;;;5.60;4.10;;;20.00;68.60;;;;;;4981546;28;20046;-83
2023/09/17 06:59:36;;;;;;;5.10;4.07;;;19.90;68.50;;;;;;5014677;28;20065;-83
2023/09/17 07:02:01;;;;;;;5.20;3.90;;;19.90;68.50;;;;;;4997944;28;20026;-83
2023/09/17 07:04:27;;;;;;;5.35;4.07;;;19.90;68.60;;;;;;4998059;28;20041;-84
2023/09/17 07:06:54;;;;;;;5.03;3.55;;;19.90;68.60;;;;;;5013995;28;20040;-83
2023/09/17 07:09:20;;;;;;;5.20;3.95;;;19.90;68.60;;;;;;4997479;28;20030;-83
2023/09/17 07:11:46;;;;;;;5.20;4.00;;;19.90;68.70;;;;;;4981340;28;20441;-83
2023/09/17 07:14:11;;;;;;;4.88;3.92;;;19.90;68.70;;;;;;4997152;28;20454;-83
2023/09/17 07:16:39;;;;;;;5.15;3.70;;;19.90;68.70;;;;;;4997727;28;20041;-84
2023/09/17 07:19:05;;;;;;;4.63;3.70;;;19.90;68.70;;;;;;5014648;28;20368;-82
2023/09/17 07:21:34;;;;;;;5.28;3.80;;;19.90;68.80;;;;;;4981146;28;20089;-83
2023/09/17 07:23:59;;;;;;;5.43;3.88;;;19.80;68.80;;;;;;5013849;28;20100;-83
2023/09/17 07:26:25;;;;;;;4.78;3.50;;;19.90;68.80;;;;;;4997315;28;20042;-83
2023/09/17 07:28:51;;;;;;;4.70;3.72;;;19.80;69.40;;;;;;4997250;28;20038;-85
2023/09/17 07:31:17;;;;;;;5.22;3.60;;;19.80;68.70;;;;;;5013365;28;20038;-83
2023/09/17 07:33:44;;;;;;;5.25;4.00;;;19.90;68.80;;;;;;4997993;28;20448;-88
2023/09/17 07:36:14;;;;;;;4.72;3.33;;;19.90;68.80;;;;;;5013703;28;20621;-84
2023/09/17 07:38:40;;;;;;;4.82;3.40;;;19.90;68.90;;;;;;4997400;28;20482;-82
2023/09/17 07:41:06;;;;;;;3.75;2.97;;;19.90;68.90;;;;;;4994607;28;20483;-87
2023/09/17 07:43:32;;;;;;;3.92;3.08;;;19.90;68.80;;;;;;4996189;28;20042;-86
2023/09/17 07:46:00;;;;;;;4.20;3.30;;;19.80;68.80;;;;;;4978364;28;20121;-87
2023/09/17 07:48:28;;;;;;;5.00;3.47;;;19.80;68.80;;;;;;4995528;28;20525;-90
2023/09/17 07:50:59;;;;;;;5.32;3.60;;;19.80;68.90;;;;;;4994939;28;20033;-90
2023/09/17 07:53:25;;;;;;;4.25;3.45;;;19.80;68.90;;;;;;4994904;28;20426;-89
2023/09/17 07:55:51;;;;;;;5.50;3.78;;;19.80;68.90;;;;;;4995138;28;20034;-88
2023/09/17 07:58:17;;;;;;;5.05;3.80;;;19.80;68.90;;;;;;5010222;28;20085;-88
2023/09/17 08:00:45;;;;;;;4.70;3.45;;;19.80;68.90;;;;;;4994429;28;20026;-88
2023/09/17 08:03:16;;;;;;;4.45;3.17;;;19.80;68.90;;;;;;4994263;28;20030;-88
2023/09/17 08:05:46;;;;;;;4.53;3.58;;;19.80;69.00;;;;;;4994001;28;20034;-89
2023/09/17 08:08:13;;;;;;;5.00;3.70;;;19.80;69.00;;;;;;5010233;28;20027;-84
2023/09/17 08:10:39;;;;;;;3.88;3.00;;;19.80;69.00;;;;;;4995204;28;20030;-86
2023/09/17 08:13:05;;;;;;;3.97;2.97;;;19.80;69.00;;;;;;5010631;28;20029;-89
2023/09/17 08:15:32;;;;;;;4.53;3.33;;;19.80;69.00;;;;;;4993927;28;20408;-90
2023/09/17 08:17:57;;;;;;;4.88;3.50;;;19.80;69.00;;;;;;4994961;28;20034;-88
2023/09/17 08:20:24;;;;;;;4.68;3.60;;;19.80;69.00;;;;;;4995195;28;20388;-84
2023/09/17 08:22:51;;;;;;;4.13;3.17;;;19.80;69.00;;;;;;5010835;28;20050;-86
2023/09/17 08:25:18;;;;;;;4.78;3.47;;;19.80;69.00;;;;;;4994281;28;20022;-91
2023/09/17 08:27:44;;;;;;;4.45;3.47;;;19.80;69.10;;;;;;4995540;28;20023;-91
2023/09/17 08:30:13;;;;;;;3.65;3.03;;;19.80;69.00;;;;;;4996275;28;20034;-86
2023/09/17 08:32:43;;;;;;;4.00;2.97;;;19.80;69.10;;;;;;4995811;28;20069;-85
2023/09/17 08:35:14;;;;;;;4.85;3.70;;;19.80;69.10;;;;;;5002384;28;20537;-85
2023/09/17 08:37:43;;;;;;;4.85;3.15;;;19.80;69.10;;;;;;5020690;28;20050;-86
2023/09/17 08:40:14;;;;;;;4.55;3.45;;;19.80;69.10;;;;;;5000065;28;20077;-86
2023/09/17 08:42:43;;;;;;;4.40;3.40;;;19.80;69.20;;;;;;4997113;28;20038;-85
2023/09/17 08:45:10;;;;;;;4.80;3.42;;;19.80;69.10;;;;;;5013421;28;20108;-85
2023/09/17 08:47:40;;;;;;;4.78;3.53;;;19.80;69.10;;;;;;4997177;28;20065;-84
2023/09/17 08:50:10;;;;;;;4.70;3.75;;;19.80;69.20;;;;;;5013449;28;20029;-86
2023/09/17 08:52:41;;;;;;;5.05;3.72;;;19.80;69.20;;;;;;4981664;28;20030;-86
2023/09/17 08:55:09;;;;;;;4.97;3.88;;;19.80;69.20;;;;;;5015076;28;20033;-87
2023/09/17 08:57:38;;;;;;;5.05;3.78;;;19.80;69.20;;;;;;5013314;28;20037;-85
2023/09/17 09:00:08;;;;;;;4.68;3.70;;;19.80;69.20;;;;;;5014509;28;20109;-86
2023/09/17 09:02:54;;;;;;;5.63;4.03;;;19.80;69.30;;;;;;4997427;28;20092;-87
2023/09/17 09:05:25;;;;;;;5.72;3.75;;;19.80;69.30;;;;;;5012682;28;20059;-88
2023/09/17 09:07:52;;;;;;;4.82;4.00;;;19.80;69.90;;;;;;5013238;28;20421;-84
2023/09/17 09:10:18;;;;;;;5.25;3.97;;;19.80;69.20;;;;;;4980623;28;20034;-86
2023/09/17 09:12:45;;;;;;;5.38;4.05;;;19.80;69.30;;;;;;5014060;28;20022;-84
2023/09/17 09:15:12;;;;;;;5.18;4.00;;;19.80;69.30;;;;;;5014118;28;20065;-85
2023/09/17 09:17:40;;;;;;;5.60;4.20;;;19.80;69.30;;;;;;4996506;28;20042;-84
2023/09/17 09:20:11;;;;;;;6.95;4.53;;;19.80;69.30;;;;;;4996633;28;20483;-84
2023/09/17 09:22:38;;;;;;;6.38;4.70;;;19.80;69.40;;;;;;4996508;28;20093;-85
2023/09/17 09:25:06;;;;;;;6.38;4.80;;;19.80;69.40;;;;;;4996472;28;20026;-85
2023/09/17 09:27:32;;;;;;;5.68;4.20;;;19.80;69.40;;;;;;4996142;28;20038;-85
2023/09/17 09:29:58;;;;;;;5.78;4.70;;;19.80;69.40;;;;;;4996406;28;20452;-84
2023/09/17 09:32:24;;;;;;;7.75;4.80;;;19.80;69.40;;;;;;5014093;28;20062;-84
2023/09/17 09:34:51;;;;;;;5.38;4.25;;;19.90;69.50;;;;;;5016032;28;20091;-84
2023/09/17 09:37:23;;;;;;;6.18;4.57;;;19.90;69.50;;;;;;5015924;28;20040;-84
2023/09/17 09:39:49;;;;;;;5.97;4.55;;;19.90;69.60;;;;;;5017553;28;20042;-83
2023/09/17 09:42:15;;;;;;;7.00;4.47;;;19.90;69.50;;;;;;5000894;28;20034;-85
2023/09/17 09:44:41;;;;;;;5.65;4.53;;;19.90;69.50;;;;;;5017224;28;20525;-87
2023/09/17 09:47:07;;;;;;;5.68;4.55;;;19.90;69.50;;;;;;4998784;28;20396;-78
2023/09/17 09:49:44;;;;;;;5.72;4.28;;;19.90;69.50;;;;;;5000084;28;20033;-77
2023/09/17 09:52:16;;;;;;;6.47;4.90;;;19.90;69.60;;;;;;4982724;28;20038;-79
2023/09/17 09:54:44;;;;;;;5.88;4.75;;;19.90;69.50;;;;;;5015871;28;20053;-79
2023/09/17 09:57:15;;;;;;;5.40;4.25;;;19.90;69.50;;;;;;4981858;28;20050;-81
2023/09/17 09:59:46;;;;;;;5.80;4.07;;;19.90;69.60;;;;;;4998570;28;20054;-81
2023/09/17 10:02:15;;;;;;;5.38;4.40;;;19.90;69.50;;;;;;5015790;28;20116;-81
2023/09/17 10:04:42;;;;;;;6.53;4.95;;;19.90;69.50;;;;;;5014874;28;20026;-80
2023/09/17 10:07:08;;;;;;;6.00;4.88;;;20.00;69.60;;;;;;5014310;28;20033;-80
2023/09/17 10:09:35;;;;;;;5.70;4.53;;;20.00;69.50;;;;;;5014338;28;20046;-79
2023/09/17 10:12:01;;;;;;;5.82;4.55;;;20.00;69.50;;;;;;4998208;28;20022;-79
2023/09/17 10:14:27;;;;;;;5.75;4.72;;;20.00;69.50;;;;;;4999002;28;20029;-79
2023/09/17 10:16:57;;;;;;;6.05;4.72;;;20.00;69.50;;;;;;5016250;28;20370;-80
2023/09/17 10:19:24;;;;;;;6.03;5.03;;;20.10;69.60;;;;;;4998889;28;20034;-80
2023/09/17 10:21:52;;;;;;;5.70;4.60;;;20.10;69.50;;;;;;4998052;28;20033;-79
2023/09/17 10:24:19;;;;;;;5.68;4.65;;;20.10;69.50;;;;;;5014472;28;20057;-78
2023/09/17 10:26:46;;;;;;;6.03;5.00;;;20.10;69.50;;;;;;4998763;28;20041;-79
2023/09/17 10:29:16;;;;;;;5.95;4.78;;;20.10;69.50;;;;;;5014553;28;20029;-81
2023/09/17 10:31:43;;;;;;;6.50;5.05;;;20.10;69.50;;;;;;5015786;28;20026;-81
2023/09/17 10:34:12;;;;;;;6.28;4.68;;;20.10;69.50;;;;;;4997864;28;20026;-81
2023/09/17 10:36:39;;;;;;;6.53;4.80;;;20.20;69.60;;;;;;4998362;28;20038;-85
2023/09/17 10:39:10;;;;;;;6.32;4.93;;;20.20;69.60;;;;;;4998386;28;20060;-80
2023/09/17 10:41:41;;;;;;;6.53;5.22;;;20.20;69.50;;;;;;4997379;28;20053;-80
2023/09/17 10:44:07;;;;;;;6.47;5.10;;;20.20;69.50;;;;;;4981299;28;20064;-79
2023/09/17 10:46:38;;;;;;;6.60;5.53;;;20.30;69.60;;;;;;4981684;28;20030;-79
2023/09/17 10:49:05;;;;;;;6.70;5.55;;;20.30;69.60;;;;;;4982696;28;20139;-84
2023/09/17 10:51:33;;;;;;;6.25;5.22;;;20.30;69.60;;;;;;4982310;28;20030;-81
2023/09/17 10:53:59;;;;;;;7.15;5.30;;;20.30;69.60;;;;;;4997830;28;20438;-82
2023/09/17 10:56:25;;;;;;;6.43;5.00;;;20.30;69.50;;;;;;4982340;28;20042;-81
2023/09/17 10:58:52;;;;;;;7.03;5.47;;;20.40;69.60;;;;;;4982093;28;20184;-83
2023/09/17 11:01:29;;;;;;;6.72;5.60;;;20.40;70.20;;;;;;5004924;28;20113;-84
2023/09/17 11:04:16;;;;;;;6.90;5.40;;;20.40;69.60;;;;;;5027218;28;20049;-83
2023/09/17 11:06:45;;;;;;;6.40;5.30;;;20.40;69.50;;;;;;5020812;28;20037;-82
2023/09/17 11:09:12;;;;;;;6.93;5.10;;;20.50;69.50;;;;;;5000521;28;20030;-77
2023/09/17 11:11:40;;;;;;;6.75;5.65;;;20.50;69.50;;;;;;4997755;28;20037;-82
2023/09/17 11:14:08;;;;;;;6.13;5.13;;;20.50;69.50;;;;;;5014634;28;20030;-79
2023/09/17 11:16:35;;;;;;;6.75;5.50;;;20.50;69.50;;;;;;4980870;28;20033;-81
2023/09/17 11:19:13;;;;;;;6.60;5.30;;;20.50;69.40;;;;;;5013419;28;20038;-82
2023/09/17 11:21:41;;;;;;;8.13;6.07;;;20.60;69.50;;;;;;4997444;28;20022;-81
2023/09/17 11:24:12;;;;;;;6.72;5.32;;;20.60;69.50;;;;;;5014477;28;20533;-81
2023/09/17 11:26:41;;;;;;;7.57;5.93;;;20.60;69.40;;;;;;4998044;28;20129;-81
2023/09/17 11:29:08;;;;;;;6.60;5.47;;;20.60;69.40;;;;;;4997028;28;20029;-81
2023/09/17 11:31:36;;;;;;;7.95;6.03;;;20.60;69.30;;;;;;4981400;28;20076;-81
2023/09/17 11:34:11;;;;;;;6.85;5.25;;;20.70;69.30;;;;;;5013261;28;20371;-81
2023/09/17 11:36:38;;;;;;;6.30;5.28;;;20.70;69.40;;;;;;4981071;28;20045;-81
2023/09/17 11:39:06;;;;;;;6.93;5.93;;;20.80;69.30;;;;;;4965280;28;20042;-83
2023/09/17 11:41:35;;;;;;;6.78;5.05;;;20.80;69.30;;;;;;5012734;28;20625;-81
2023/09/17 11:44:04;;;;;;;7.28;5.93;;;20.80;69.20;;;;;;4997865;28;20042;-81
2023/09/17 11:46:30;;;;;;;7.15;6.00;;;20.80;69.20;;;;;;4996989;28;20042;-81
2023/09/17 11:48:59;;;;;;;7.10;5.40;;;20.90;69.10;;;;;;4996240;28;20073;-82
2023/09/17 11:51:27;;;;;;;6.63;5.72;;;20.90;69.00;;;;;;4997205;28;20511;-82
2023/09/17 11:53:59;;;;;;;7.18;5.80;;;21.00;69.10;;;;;;4995885;28;20439;-82
2023/09/17 11:56:30;;;;;;;6.63;5.18;;;21.00;69.00;;;;;;5012436;28;20025;-82
2023/09/17 11:59:09;;;;;;;7.07;5.47;;;21.00;69.00;;;;;;5012170;28;20044;-82
2023/09/17 12:01:47;;;;;;;6.32;5.40;;;21.10;69.00;;;;;;4996382;28;20033;-82
2023/09/17 12:04:14;;;;;;;7.13;5.47;;;21.10;69.00;;;;;;4996057;28;20026;-82
2023/09/17 12:06:48;;;;;;;6.00;5.10;;;21.10;69.50;;;;;;4996803;28;20041;-83
2023/09/17 12:09:20;;;;;;;6.82;5.38;;;21.20;69.00;;;;;;4996411;28;20036;-82
2023/09/17 12:11:47;;;;;;;7.05;5.78;;;21.20;68.80;;;;;;5013187;28;20040;-82
2023/09/17 12:14:14;;;;;;;7.07;5.75;;;21.20;68.80;;;;;;4996845;28;20087;-82
2023/09/17 12:16:40;;;;;;;7.20;5.90;;;21.30;68.80;;;;;;5013085;28;20029;-83
2023/09/17 12:19:07;;;;;;;8.07;5.90;;;21.30;68.70;;;;;;4995777;28;20121;-82
2023/09/17 12:21:59;;;;;;;7.70;5.90;;;21.30;68.70;;;;;;5012247;28;20061;-82
2023/09/17 12:24:30;;;;;;;6.72;5.28;;;21.30;68.80;;;;;;5013517;28;20075;-85
2023/09/17 12:29:59;;;;;;;6.53;5.28;;;21.40;68.80;;;;;;5014184;28;20439;-85
2023/09/17 12:32:29;;;;;;;6.88;5.55;;;21.40;68.60;;;;;;4996757;28;20029;-84
2023/09/17 12:34:55;;;;;;;6.57;5.13;;;21.40;68.70;;;;;;5013800;28;20030;-83
2023/09/17 12:37:22;;;;;;;7.25;5.68;;;21.40;68.60;;;;;;5013287;28;20042;-84
2023/09/17 12:39:49;;;;;;;7.75;6.68;;;21.50;68.70;;;;;;4980618;28;20486;-84
2023/09/17 12:42:16;;;;;;;7.30;6.00;;;21.50;68.70;;;;;;4996301;28;20050;-86
2023/09/17 12:44:42;;;;;;;6.70;5.85;;;21.50;68.70;;;;;;4996161;28;20378;-82
2023/09/17 12:47:08;;;;;;;7.88;6.70;;;21.50;68.80;;;;;;4979592;28;20034;-82
2023/09/17 12:49:35;;;;;;;8.43;7.13;;;21.60;68.80;;;;;;5012342;28;20048;-82
2023/09/17 12:52:01;;;;;;;8.80;6.95;;;21.60;68.80;;;;;;5012213;28;20033;-81
2023/09/17 12:54:27;;;;;;;8.55;7.63;;;21.60;68.80;;;;;;5011868;28;20036;-82